createdAt,value
2022-10-06T17:17:50.276Z,15.13
2022-10-06T17:18:51.225Z,15.11
2022-10-06T17:19:51.221Z,15.09
2022-10-06T17:20:51.222Z,15.12
2022-10-06T17:21:57.373Z,15.15
2022-10-06T17:22:51.215Z,15.13
2022-10-06T17:23:51.194Z,15.15
2022-10-06T17:24:52.019Z,15.13
2022-10-06T17:25:51.198Z,15.12
2022-10-06T17:26:51.145Z,15.13
2022-10-06T17:27:51.137Z,15.15
2022-10-06T17:28:51.123Z,15.12
2022-10-06T17:29:51.156Z,15.12
2022-10-06T17:30:51.171Z,15.12
2022-10-06T17:31:51.197Z,15.11
2022-10-06T17:32:51.095Z,15.11
2022-10-06T17:33:51.078Z,15.11
2022-10-06T17:34:51.084Z,15.09
2022-10-06T17:35:51.083Z,15.09
2022-10-06T17:36:51.425Z,15.08
2022-10-06T17:37:51.049Z,15.09
2022-10-06T17:38:51.044Z,15.08
2022-10-06T17:39:51.159Z,15.06
2022-10-06T17:40:50.997Z,15.08
2022-10-06T17:41:51.018Z,15.06
2022-10-06T17:42:50.978Z,15.02
2022-10-06T17:43:50.988Z,15.01
2022-10-06T17:44:50.971Z,14.98
2022-10-06T17:45:51.013Z,14.98
2022-10-06T17:46:50.954Z,14.93
2022-10-06T17:47:50.946Z,14.90
2022-10-06T17:48:50.926Z,14.91
2022-10-06T17:49:50.912Z,14.90
2022-10-06T17:50:50.899Z,14.90
2022-10-06T17:51:50.922Z,14.90
2022-10-06T17:52:50.878Z,14.88
2022-10-06T17:53:50.877Z,14.88
2022-10-06T17:54:50.861Z,14.90
2022-10-06T17:55:50.846Z,14.90
2022-10-06T17:56:50.878Z,14.93
2022-10-06T17:57:50.836Z,14.90
2022-10-06T17:58:50.830Z,14.93
2022-10-06T17:59:50.804Z,14.93
2022-10-06T18:00:50.851Z,14.93
2022-10-06T18:01:50.847Z,14.93
2022-10-06T18:02:50.850Z,14.94
2022-10-06T18:03:50.757Z,14.95
2022-10-06T18:04:50.775Z,14.94
2022-10-06T18:05:50.750Z,14.94
2022-10-06T18:06:50.751Z,14.94
2022-10-06T18:07:50.714Z,14.94
2022-10-06T18:08:50.711Z,14.94
2022-10-06T18:09:50.707Z,14.95
2022-10-06T18:10:50.709Z,14.95
2022-10-06T18:11:50.712Z,14.95
2022-10-06T18:12:50.675Z,14.95
2022-10-06T18:13:50.662Z,14.95
2022-10-06T18:14:50.665Z,14.95
2022-10-06T18:15:50.632Z,14.95
2022-10-06T18:16:55.739Z,14.95
2022-10-06T18:17:50.637Z,14.95
2022-10-06T18:18:50.633Z,14.94
2022-10-06T18:19:50.603Z,14.94
2022-10-06T18:20:50.585Z,14.91
2022-10-06T18:21:50.603Z,14.91
2022-10-06T18:22:50.576Z,14.90
2022-10-06T18:23:50.564Z,14.88
2022-10-06T18:24:50.557Z,14.88
2022-10-06T18:25:50.527Z,14.88
2022-10-06T18:26:50.544Z,14.86
2022-10-06T18:27:50.518Z,14.84
2022-10-06T18:28:50.514Z,14.86
2022-10-06T18:29:50.486Z,14.84
2022-10-06T18:30:50.502Z,14.83
2022-10-06T18:31:50.563Z,14.81
2022-10-06T18:36:50.461Z,14.80
2022-10-06T18:37:54.433Z,14.80
2022-10-06T18:38:50.403Z,14.75
2022-10-06T18:39:50.395Z,14.75
2022-10-06T18:40:50.377Z,14.75
2022-10-06T18:41:50.395Z,14.74
2022-10-06T18:42:50.364Z,14.71
2022-10-06T18:43:50.340Z,14.71
2022-10-06T18:44:50.353Z,14.67
2022-10-06T18:45:50.365Z,14.64
2022-10-06T18:46:50.354Z,14.60
2022-10-06T18:47:50.301Z,14.60
2022-10-06T18:48:50.292Z,14.60
2022-10-06T18:49:50.279Z,14.60
2022-10-06T18:50:50.294Z,14.57
2022-10-06T18:51:52.647Z,14.57
2022-10-06T18:52:50.272Z,14.57
2022-10-06T18:53:50.235Z,14.56
2022-10-06T18:54:50.240Z,14.57
2022-10-06T18:55:51.301Z,14.60
2022-10-06T18:56:50.312Z,14.57
2022-10-06T18:57:50.986Z,14.60
2022-10-06T18:58:52.484Z,14.60
2022-10-06T18:59:51.037Z,14.57
2022-10-06T19:00:50.321Z,14.60
2022-10-06T19:01:50.247Z,14.60
2022-10-06T19:02:50.149Z,14.56
2022-10-06T19:03:50.146Z,14.54
2022-10-06T19:04:50.126Z,14.52
2022-10-06T19:05:50.124Z,14.49
2022-10-06T19:06:50.131Z,14.47
2022-10-06T19:07:50.092Z,14.46
2022-10-06T19:08:50.098Z,14.47
2022-10-06T19:09:50.078Z,14.46
2022-10-06T19:10:50.063Z,14.47
2022-10-06T19:11:50.077Z,14.47
2022-10-06T19:12:50.053Z,14.49
2022-10-06T19:13:50.032Z,14.49
2022-10-06T19:14:50.036Z,14.49
2022-10-06T19:15:50.006Z,14.49
2022-10-06T19:16:50.098Z,14.46
2022-10-06T19:17:50.099Z,14.46
2022-10-06T19:18:49.979Z,14.46
2022-10-06T19:19:49.995Z,14.44
2022-10-06T19:20:50.015Z,14.44
2022-10-06T19:21:49.969Z,14.42
2022-10-06T19:22:49.951Z,14.42
2022-10-06T19:23:49.932Z,14.43
2022-10-06T19:24:49.927Z,14.43
2022-10-06T19:25:49.903Z,14.43
2022-10-06T19:26:49.924Z,14.42
2022-10-06T19:27:49.891Z,14.44
2022-10-06T19:28:49.880Z,14.44
2022-10-06T19:29:50.989Z,14.43
2022-10-06T19:30:50.823Z,14.43
2022-10-06T19:31:49.865Z,14.44
2022-10-06T19:32:53.505Z,14.43
2022-10-06T19:33:50.496Z,14.46
2022-10-06T19:34:50.109Z,14.46
2022-10-06T19:35:50.952Z,14.46
2022-10-06T19:36:50.167Z,14.46
2022-10-06T19:37:49.948Z,14.46
2022-10-06T19:38:49.793Z,14.46
2022-10-06T19:39:49.758Z,14.44
2022-10-06T19:40:49.762Z,14.44
2022-10-06T19:41:49.770Z,14.46
2022-10-06T19:42:49.743Z,14.46
2022-10-06T19:43:49.716Z,14.46
2022-10-06T19:44:49.724Z,14.46
2022-10-06T19:45:49.835Z,14.47
2022-10-06T19:46:49.769Z,14.47
2022-10-06T19:47:49.693Z,14.49
2022-10-06T19:48:49.681Z,14.49
2022-10-06T19:49:49.818Z,14.50
2022-10-06T19:50:49.646Z,14.50
2022-10-06T19:51:49.676Z,14.52
2022-10-06T19:52:49.626Z,14.52
2022-10-06T19:53:49.618Z,14.50
2022-10-06T19:54:49.607Z,14.53
2022-10-06T19:55:49.614Z,14.53
2022-10-06T19:56:50.583Z,14.53
2022-10-06T19:57:49.594Z,14.52
2022-10-06T19:58:49.576Z,14.53
2022-10-06T19:59:49.560Z,14.52
2022-10-06T20:00:49.548Z,14.50
2022-10-06T20:01:49.581Z,14.49
2022-10-06T20:02:49.525Z,14.50
2022-10-06T20:03:49.573Z,14.50
2022-10-06T20:04:49.502Z,14.50
2022-10-06T20:05:49.485Z,14.49
2022-10-06T20:06:49.524Z,14.46
2022-10-06T20:07:49.468Z,14.44
2022-10-06T20:08:49.483Z,14.44
2022-10-06T20:09:49.443Z,14.43
2022-10-06T20:10:49.447Z,14.43
2022-10-06T20:11:49.441Z,14.42
2022-10-06T20:12:49.479Z,14.42
2022-10-06T20:13:49.409Z,14.39
2022-10-06T20:14:49.397Z,14.38
2022-10-06T20:15:49.398Z,14.38
2022-10-06T20:16:49.407Z,14.37
2022-10-06T20:17:49.610Z,14.35
2022-10-06T20:18:49.364Z,14.35
2022-10-06T20:19:52.814Z,14.29
2022-10-06T20:20:49.341Z,14.32
2022-10-06T20:21:51.514Z,14.31
2022-10-06T20:22:55.131Z,14.28
2022-10-06T20:23:49.670Z,14.25
2022-10-06T20:24:50.337Z,14.25
2022-10-06T20:25:49.290Z,14.24
2022-10-06T20:26:49.270Z,14.24
2022-10-06T20:27:49.277Z,14.21
2022-10-06T20:28:50.105Z,14.19
2022-10-06T20:29:49.253Z,14.20
2022-10-06T20:30:49.326Z,14.16
2022-10-06T20:31:49.242Z,14.14
2022-10-06T20:32:49.222Z,14.10
2022-10-06T20:33:49.208Z,14.09
2022-10-06T20:34:49.194Z,14.07
2022-10-06T20:35:49.182Z,14.09
2022-10-06T20:36:54.601Z,14.07
2022-10-06T20:37:49.156Z,14.07
2022-10-06T20:38:49.147Z,14.06
2022-10-06T20:39:49.141Z,14.04
2022-10-06T20:40:49.171Z,14.02
2022-10-06T20:41:49.139Z,14.01
2022-10-06T20:42:49.173Z,13.96
2022-10-06T20:43:49.105Z,13.95
2022-10-06T20:44:49.100Z,13.91
2022-10-06T20:45:49.115Z,13.87
2022-10-06T20:46:51.519Z,13.88
2022-10-06T20:47:49.061Z,13.83
2022-10-06T20:48:49.040Z,13.83
2022-10-06T20:49:49.047Z,13.79
2022-10-06T20:50:49.032Z,13.79
2022-10-06T20:51:50.561Z,13.77
2022-10-06T20:52:49.010Z,13.76
2022-10-06T20:53:48.984Z,13.76
2022-10-06T20:54:48.992Z,13.73
2022-10-06T20:55:48.974Z,13.71
2022-10-06T20:56:48.994Z,13.69
2022-10-06T20:57:49.327Z,13.69
2022-10-06T20:58:48.936Z,13.63
2022-10-06T20:59:48.924Z,13.63
2022-10-06T21:00:49.007Z,13.63
2022-10-06T21:01:49.111Z,13.59
2022-10-06T21:02:49.043Z,13.58
2022-10-06T21:03:49.627Z,13.56
2022-10-06T21:04:48.965Z,13.58
2022-10-06T21:05:48.949Z,13.56
2022-10-06T21:06:48.942Z,13.58
2022-10-06T21:07:48.952Z,13.56
2022-10-06T21:08:48.920Z,13.56
2022-10-06T21:09:52.207Z,13.56
2022-10-06T21:10:48.907Z,13.58
2022-10-06T21:11:48.889Z,13.59
2022-10-06T21:12:48.903Z,13.56
2022-10-06T21:13:48.871Z,13.58
2022-10-06T21:14:48.865Z,13.58
2022-10-06T21:15:48.916Z,13.61
2022-10-06T21:16:48.848Z,13.58
2022-10-06T21:17:48.851Z,13.59
2022-10-06T21:18:48.821Z,13.61
2022-10-06T21:19:48.805Z,13.59
